Terminal Aerodrome Forecast
Issued by NWS

Home | Current Version | Previous Version | Text Only | Print | Product List | Glossary On
Versions: 1 2 3 4 5 6 7 8 9 10 11 12 13
621
FTUS43 KEAX 261521 AAA
TAFSTJ
TAF AMD
KSTJ 261521Z 2615/2712 17008KT 6SM -RA BKN050
      TEMPO 2615/2617 3SM -RA
     FM261800 19009KT P6SM VCSH SCT060 BKN100
     FM262100 16010KT P6SM SCT060 BKN100
     FM270100 13006KT P6SM VCTS BKN050CB=

USA.gov is the U.S. government's official web portal to all federal, state and local government web resources and services.